sensor_id;sensor_type;location;lat;lon;timestamp;P1;durP1;ratioP1;P2;durP2;ratioP2
80908;SDS011;70358;56.958;24.126;2023-06-22T00:01:27;10.10;;;7.05;;
80908;SDS011;70358;56.958;24.126;2023-06-22T00:03:52;8.38;;;7.00;;
80908;SDS011;70358;56.958;24.126;2023-06-22T00:06:17;9.10;;;6.88;;
80908;SDS011;70358;56.958;24.126;2023-06-22T00:08:43;7.75;;;6.90;;
80908;SDS011;70358;56.958;24.126;2023-06-22T00:11:08;8.05;;;6.47;;
80908;SDS011;70358;56.958;24.126;2023-06-22T00:13:34;10.82;;;7.72;;
80908;SDS011;70358;56.958;24.126;2023-06-22T00:16:00;8.40;;;6.82;;
80908;SDS011;70358;56.958;24.126;2023-06-22T00:18:25;9.40;;;6.90;;
80908;SDS011;70358;56.958;24.126;2023-06-22T00:20:56;8.70;;;6.85;;
80908;SDS011;70358;56.958;24.126;2023-06-22T00:23:25;8.90;;;6.70;;
80908;SDS011;70358;56.958;24.126;2023-06-22T00:25:51;8.50;;;6.78;;
80908;SDS011;70358;56.958;24.126;2023-06-22T00:28:16;7.80;;;6.72;;
80908;SDS011;70358;56.958;24.126;2023-06-22T00:30:42;7.68;;;6.57;;
80908;SDS011;70358;56.958;24.126;2023-06-22T00:33:07;7.32;;;6.55;;
80908;SDS011;70358;56.958;24.126;2023-06-22T00:35:33;8.47;;;6.33;;
80908;SDS011;70358;56.958;24.126;2023-06-22T00:37:58;7.50;;;6.50;;
80908;SDS011;70358;56.958;24.126;2023-06-22T00:40:30;9.10;;;7.40;;
80908;SDS011;70358;56.958;24.126;2023-06-22T00:42:56;8.02;;;6.88;;
80908;SDS011;70358;56.958;24.126;2023-06-22T00:45:23;7.65;;;6.38;;
80908;SDS011;70358;56.958;24.126;2023-06-22T00:47:52;9.02;;;7.13;;
80908;SDS011;70358;56.958;24.126;2023-06-22T00:50:19;8.18;;;6.82;;
80908;SDS011;70358;56.958;24.126;2023-06-22T00:52:48;8.25;;;6.90;;
80908;SDS011;70358;56.958;24.126;2023-06-22T00:55:16;9.00;;;7.40;;
80908;SDS011;70358;56.958;24.126;2023-06-22T00:57:44;7.68;;;6.78;;
80908;SDS011;70358;56.958;24.126;2023-06-22T01:00:11;9.80;;;7.13;;
80908;SDS011;70358;56.958;24.126;2023-06-22T01:02:44;8.13;;;6.40;;
80908;SDS011;70358;56.958;24.126;2023-06-22T01:05:14;7.95;;;6.70;;
80908;SDS011;70358;56.958;24.126;2023-06-22T01:10:25;9.23;;;7.55;;
80908;SDS011;70358;56.958;24.126;2023-06-22T01:12:55;8.65;;;7.47;;
80908;SDS011;70358;56.958;24.126;2023-06-22T01:15:35;7.57;;;6.50;;
80908;SDS011;70358;56.958;24.126;2023-06-22T01:18:04;7.82;;;6.80;;
80908;SDS011;70358;56.958;24.126;2023-06-22T01:20:30;8.30;;;6.75;;
80908;SDS011;70358;56.958;24.126;2023-06-22T01:25:53;7.22;;;6.47;;
80908;SDS011;70358;56.958;24.126;2023-06-22T01:31:09;8.13;;;6.78;;
80908;SDS011;70358;56.958;24.126;2023-06-22T01:33:37;8.20;;;7.05;;
80908;SDS011;70358;56.958;24.126;2023-06-22T01:36:04;8.10;;;6.47;;
80908;SDS011;70358;56.958;24.126;2023-06-22T01:38:30;9.23;;;7.18;;
80908;SDS011;70358;56.958;24.126;2023-06-22T01:40:59;7.80;;;5.88;;
80908;SDS011;70358;56.958;24.126;2023-06-22T01:43:26;7.78;;;6.93;;
80908;SDS011;70358;56.958;24.126;2023-06-22T01:45:52;6.97;;;6.20;;
80908;SDS011;70358;56.958;24.126;2023-06-22T01:50:44;7.43;;;6.50;;
80908;SDS011;70358;56.958;24.126;2023-06-22T01:53:10;7.80;;;6.28;;
80908;SDS011;70358;56.958;24.126;2023-06-22T01:55:35;8.18;;;6.50;;
80908;SDS011;70358;56.958;24.126;2023-06-22T01:58:00;8.20;;;7.05;;
80908;SDS011;70358;56.958;24.126;2023-06-22T02:00:26;8.05;;;6.57;;
80908;SDS011;70358;56.958;24.126;2023-06-22T02:05:22;8.05;;;7.10;;
80908;SDS011;70358;56.958;24.126;2023-06-22T02:10:20;7.20;;;6.50;;
80908;SDS011;70358;56.958;24.126;2023-06-22T02:12:46;8.80;;;7.05;;
80908;SDS011;70358;56.958;24.126;2023-06-22T02:15:13;8.68;;;7.00;;
80908;SDS011;70358;56.958;24.126;2023-06-22T02:17:39;7.75;;;6.70;;
80908;SDS011;70358;56.958;24.126;2023-06-22T02:20:13;7.18;;;6.47;;
80908;SDS011;70358;56.958;24.126;2023-06-22T02:22:39;8.98;;;7.18;;
80908;SDS011;70358;56.958;24.126;2023-06-22T02:25:04;8.45;;;7.10;;
80908;SDS011;70358;56.958;24.126;2023-06-22T02:27:30;7.85;;;7.03;;
80908;SDS011;70358;56.958;24.126;2023-06-22T02:29:56;7.38;;;6.53;;
80908;SDS011;70358;56.958;24.126;2023-06-22T02:32:22;7.28;;;6.55;;
80908;SDS011;70358;56.958;24.126;2023-06-22T02:34:47;6.80;;;6.03;;
80908;SDS011;70358;56.958;24.126;2023-06-22T02:37:13;7.32;;;6.38;;
80908;SDS011;70358;56.958;24.126;2023-06-22T02:39:39;10.52;;;6.75;;
80908;SDS011;70358;56.958;24.126;2023-06-22T02:42:05;8.38;;;6.53;;
80908;SDS011;70358;56.958;24.126;2023-06-22T02:44:31;7.75;;;6.43;;
80908;SDS011;70358;56.958;24.126;2023-06-22T02:46:56;7.57;;;6.35;;
80908;SDS011;70358;56.958;24.126;2023-06-22T02:49:22;8.70;;;7.07;;
80908;SDS011;70358;56.958;24.126;2023-06-22T02:51:48;8.60;;;6.95;;
80908;SDS011;70358;56.958;24.126;2023-06-22T02:54:14;7.35;;;6.32;;
80908;SDS011;70358;56.958;24.126;2023-06-22T02:56:39;7.88;;;6.88;;
80908;SDS011;70358;56.958;24.126;2023-06-22T02:59:05;8.00;;;7.20;;
80908;SDS011;70358;56.958;24.126;2023-06-22T03:01:31;8.75;;;7.32;;
80908;SDS011;70358;56.958;24.126;2023-06-22T03:04:02;7.95;;;6.45;;
80908;SDS011;70358;56.958;24.126;2023-06-22T03:06:28;10.20;;;7.43;;
80908;SDS011;70358;56.958;24.126;2023-06-22T03:09:00;8.10;;;7.10;;
80908;SDS011;70358;56.958;24.126;2023-06-22T03:11:28;8.73;;;7.45;;
80908;SDS011;70358;56.958;24.126;2023-06-22T03:13:54;8.20;;;7.20;;
80908;SDS011;70358;56.958;24.126;2023-06-22T03:16:20;7.55;;;6.75;;
80908;SDS011;70358;56.958;24.126;2023-06-22T03:18:45;9.30;;;7.00;;
80908;SDS011;70358;56.958;24.126;2023-06-22T03:21:12;8.50;;;7.32;;
80908;SDS011;70358;56.958;24.126;2023-06-22T03:23:40;7.75;;;6.88;;
80908;SDS011;70358;56.958;24.126;2023-06-22T03:26:05;8.60;;;6.97;;
80908;SDS011;70358;56.958;24.126;2023-06-22T03:28:31;9.30;;;7.13;;
80908;SDS011;70358;56.958;24.126;2023-06-22T03:30:59;8.57;;;7.03;;
80908;SDS011;70358;56.958;24.126;2023-06-22T03:33:25;7.88;;;6.78;;
80908;SDS011;70358;56.958;24.126;2023-06-22T03:35:50;7.78;;;6.97;;
80908;SDS011;70358;56.958;24.126;2023-06-22T03:38:16;8.43;;;6.93;;
80908;SDS011;70358;56.958;24.126;2023-06-22T03:40:42;8.20;;;6.75;;
80908;SDS011;70358;56.958;24.126;2023-06-22T03:43:07;8.90;;;7.13;;
80908;SDS011;70358;56.958;24.126;2023-06-22T03:45:33;8.57;;;7.07;;
80908;SDS011;70358;56.958;24.126;2023-06-22T03:47:58;8.80;;;7.88;;
80908;SDS011;70358;56.958;24.126;2023-06-22T03:50:24;8.02;;;7.22;;
80908;SDS011;70358;56.958;24.126;2023-06-22T03:52:49;7.65;;;6.85;;
80908;SDS011;70358;56.958;24.126;2023-06-22T03:55:17;8.68;;;7.63;;
80908;SDS011;70358;56.958;24.126;2023-06-22T03:57:44;8.63;;;7.75;;
80908;SDS011;70358;56.958;24.126;2023-06-22T04:00:09;8.70;;;7.80;;
80908;SDS011;70358;56.958;24.126;2023-06-22T04:02:36;9.20;;;7.32;;
80908;SDS011;70358;56.958;24.126;2023-06-22T04:05:01;9.27;;;7.50;;
80908;SDS011;70358;56.958;24.126;2023-06-22T04:07:27;9.23;;;7.95;;
80908;SDS011;70358;56.958;24.126;2023-06-22T04:09:52;9.25;;;8.10;;
80908;SDS011;70358;56.958;24.126;2023-06-22T04:12:18;9.25;;;7.82;;
80908;SDS011;70358;56.958;24.126;2023-06-22T04:14:43;9.43;;;8.43;;
80908;SDS011;70358;56.958;24.126;2023-06-22T04:17:09;10.95;;;8.55;;
80908;SDS011;70358;56.958;24.126;2023-06-22T04:19:34;12.32;;;8.65;;
80908;SDS011;70358;56.958;24.126;2023-06-22T04:21:59;11.32;;;8.88;;
80908;SDS011;70358;56.958;24.126;2023-06-22T04:24:25;10.30;;;8.63;;
80908;SDS011;70358;56.958;24.126;2023-06-22T04:26:50;9.98;;;8.70;;
80908;SDS011;70358;56.958;24.126;2023-06-22T04:29:19;11.82;;;9.40;;
80908;SDS011;70358;56.958;24.126;2023-06-22T04:31:45;11.25;;;8.88;;
80908;SDS011;70358;56.958;24.126;2023-06-22T04:34:15;10.10;;;9.02;;
80908;SDS011;70358;56.958;24.126;2023-06-22T04:36:41;11.23;;;9.35;;
80908;SDS011;70358;56.958;24.126;2023-06-22T04:39:08;10.80;;;9.30;;
80908;SDS011;70358;56.958;24.126;2023-06-22T04:41:35;10.38;;;8.95;;
80908;SDS011;70358;56.958;24.126;2023-06-22T04:46:36;10.68;;;9.43;;
80908;SDS011;70358;56.958;24.126;2023-06-22T04:49:12;13.35;;;9.43;;
80908;SDS011;70358;56.958;24.126;2023-06-22T04:51:39;11.75;;;9.85;;
80908;SDS011;70358;56.958;24.126;2023-06-22T04:54:05;11.65;;;10.45;;
80908;SDS011;70358;56.958;24.126;2023-06-22T04:56:31;11.57;;;9.73;;
80908;SDS011;70358;56.958;24.126;2023-06-22T04:58:57;14.38;;;10.02;;
80908;SDS011;70358;56.958;24.126;2023-06-22T05:01:23;17.15;;;11.18;;
80908;SDS011;70358;56.958;24.126;2023-06-22T05:03:49;11.63;;;9.98;;
80908;SDS011;70358;56.958;24.126;2023-06-22T05:06:14;11.52;;;10.32;;
80908;SDS011;70358;56.958;24.126;2023-06-22T05:08:40;14.43;;;11.20;;
80908;SDS011;70358;56.958;24.126;2023-06-22T05:11:06;13.15;;;11.02;;
80908;SDS011;70358;56.958;24.126;2023-06-22T05:13:32;17.83;;;10.48;;
80908;SDS011;70358;56.958;24.126;2023-06-22T05:15:58;18.08;;;10.80;;
80908;SDS011;70358;56.958;24.126;2023-06-22T05:18:30;15.82;;;11.82;;
80908;SDS011;70358;56.958;24.126;2023-06-22T05:20:55;20.15;;;11.77;;
80908;SDS011;70358;56.958;24.126;2023-06-22T05:23:22;15.65;;;11.90;;
80908;SDS011;70358;56.958;24.126;2023-06-22T05:25:47;15.13;;;11.40;;
80908;SDS011;70358;56.958;24.126;2023-06-22T05:28:12;21.63;;;11.73;;
80908;SDS011;70358;56.958;24.126;2023-06-22T05:30:38;15.73;;;11.02;;
80908;SDS011;70358;56.958;24.126;2023-06-22T05:33:04;17.25;;;11.27;;
80908;SDS011;70358;56.958;24.126;2023-06-22T05:35:30;16.55;;;11.90;;
80908;SDS011;70358;56.958;24.126;2023-06-22T05:37:56;16.60;;;11.80;;
80908;SDS011;70358;56.958;24.126;2023-06-22T05:40:21;14.77;;;11.40;;
80908;SDS011;70358;56.958;24.126;2023-06-22T05:42:46;15.73;;;11.95;;
80908;SDS011;70358;56.958;24.126;2023-06-22T05:45:12;15.73;;;11.95;;
80908;SDS011;70358;56.958;24.126;2023-06-22T05:47:38;15.35;;;12.45;;
80908;SDS011;70358;56.958;24.126;2023-06-22T05:50:04;17.25;;;12.57;;
80908;SDS011;70358;56.958;24.126;2023-06-22T05:52:31;16.55;;;12.38;;
80908;SDS011;70358;56.958;24.126;2023-06-22T05:54:57;18.35;;;12.57;;
80908;SDS011;70358;56.958;24.126;2023-06-22T05:57:23;18.70;;;12.77;;
80908;SDS011;70358;56.958;24.126;2023-06-22T05:59:48;18.17;;;12.88;;
80908;SDS011;70358;56.958;24.126;2023-06-22T06:02:14;16.80;;;12.00;;
80908;SDS011;70358;56.958;24.126;2023-06-22T06:04:40;18.67;;;13.50;;
80908;SDS011;70358;56.958;24.126;2023-06-22T06:09:31;18.05;;;12.82;;
80908;SDS011;70358;56.958;24.126;2023-06-22T06:11:57;16.23;;;12.68;;
80908;SDS011;70358;56.958;24.126;2023-06-22T06:14:22;19.23;;;14.73;;
80908;SDS011;70358;56.958;24.126;2023-06-22T06:16:48;18.35;;;13.77;;
80908;SDS011;70358;56.958;24.126;2023-06-22T06:19:14;20.30;;;13.98;;
80908;SDS011;70358;56.958;24.126;2023-06-22T06:21:39;18.05;;;13.75;;
80908;SDS011;70358;56.958;24.126;2023-06-22T06:24:05;21.80;;;13.48;;
80908;SDS011;70358;56.958;24.126;2023-06-22T06:26:30;24.38;;;14.95;;
80908;SDS011;70358;56.958;24.126;2023-06-22T06:28:59;20.48;;;15.75;;
80908;SDS011;70358;56.958;24.126;2023-06-22T06:31:25;23.52;;;14.57;;
80908;SDS011;70358;56.958;24.126;2023-06-22T06:33:53;22.30;;;14.57;;
80908;SDS011;70358;56.958;24.126;2023-06-22T06:36:19;20.63;;;13.05;;
80908;SDS011;70358;56.958;24.126;2023-06-22T06:38:46;18.58;;;13.15;;
80908;SDS011;70358;56.958;24.126;2023-06-22T06:41:16;19.42;;;12.52;;
80908;SDS011;70358;56.958;24.126;2023-06-22T06:43:41;18.50;;;12.45;;
80908;SDS011;70358;56.958;24.126;2023-06-22T06:46:10;25.67;;;12.50;;
80908;SDS011;70358;56.958;24.126;2023-06-22T06:48:36;18.65;;;12.68;;
80908;SDS011;70358;56.958;24.126;2023-06-22T06:51:01;17.33;;;12.02;;
80908;SDS011;70358;56.958;24.126;2023-06-22T06:53:27;16.20;;;11.55;;
80908;SDS011;70358;56.958;24.126;2023-06-22T06:55:53;19.35;;;12.18;;
80908;SDS011;70358;56.958;24.126;2023-06-22T06:58:19;17.40;;;12.93;;
80908;SDS011;70358;56.958;24.126;2023-06-22T07:00:44;20.33;;;13.20;;
80908;SDS011;70358;56.958;24.126;2023-06-22T07:03:10;14.77;;;11.45;;
80908;SDS011;70358;56.958;24.126;2023-06-22T07:05:35;14.45;;;11.70;;
80908;SDS011;70358;56.958;24.126;2023-06-22T07:08:01;17.20;;;11.85;;
80908;SDS011;70358;56.958;24.126;2023-06-22T07:10:27;17.20;;;12.52;;
80908;SDS011;70358;56.958;24.126;2023-06-22T07:12:53;13.90;;;11.30;;
80908;SDS011;70358;56.958;24.126;2023-06-22T07:15:18;14.85;;;11.48;;
80908;SDS011;70358;56.958;24.126;2023-06-22T07:17:44;15.68;;;11.52;;
80908;SDS011;70358;56.958;24.126;2023-06-22T07:20:09;15.18;;;12.20;;
80908;SDS011;70358;56.958;24.126;2023-06-22T07:22:38;16.45;;;12.25;;
80908;SDS011;70358;56.958;24.126;2023-06-22T07:25:04;14.90;;;11.98;;
80908;SDS011;70358;56.958;24.126;2023-06-22T07:27:44;17.02;;;12.23;;
80908;SDS011;70358;56.958;24.126;2023-06-22T07:30:11;14.95;;;11.25;;
80908;SDS011;70358;56.958;24.126;2023-06-22T07:32:37;18.27;;;11.88;;
80908;SDS011;70358;56.958;24.126;2023-06-22T07:35:04;17.08;;;12.18;;
80908;SDS011;70358;56.958;24.126;2023-06-22T07:37:30;15.93;;;11.80;;
80908;SDS011;70358;56.958;24.126;2023-06-22T07:39:56;16.83;;;12.40;;
80908;SDS011;70358;56.958;24.126;2023-06-22T07:42:24;14.68;;;12.20;;
80908;SDS011;70358;56.958;24.126;2023-06-22T07:44:50;14.70;;;11.88;;
80908;SDS011;70358;56.958;24.126;2023-06-22T07:47:16;15.75;;;12.18;;
80908;SDS011;70358;56.958;24.126;2023-06-22T07:49:44;15.77;;;12.52;;
80908;SDS011;70358;56.958;24.126;2023-06-22T07:52:10;15.75;;;12.32;;
80908;SDS011;70358;56.958;24.126;2023-06-22T07:54:36;15.48;;;11.82;;
80908;SDS011;70358;56.958;24.126;2023-06-22T07:57:01;17.85;;;12.45;;
80908;SDS011;70358;56.958;24.126;2023-06-22T07:59:36;17.15;;;12.98;;
80908;SDS011;70358;56.958;24.126;2023-06-22T08:02:25;17.08;;;13.23;;
80908;SDS011;70358;56.958;24.126;2023-06-22T08:04:51;20.10;;;15.45;;
80908;SDS011;70358;56.958;24.126;2023-06-22T08:07:17;26.13;;;17.27;;
80908;SDS011;70358;56.958;24.126;2023-06-22T08:09:48;25.80;;;17.52;;
80908;SDS011;70358;56.958;24.126;2023-06-22T08:12:16;27.13;;;17.73;;
80908;SDS011;70358;56.958;24.126;2023-06-22T08:14:42;21.83;;;16.70;;
80908;SDS011;70358;56.958;24.126;2023-06-22T08:17:09;25.27;;;18.35;;
80908;SDS011;70358;56.958;24.126;2023-06-22T08:19:36;23.15;;;17.73;;
80908;SDS011;70358;56.958;24.126;2023-06-22T08:22:02;28.25;;;18.63;;
80908;SDS011;70358;56.958;24.126;2023-06-22T08:24:27;24.60;;;17.98;;
80908;SDS011;70358;56.958;24.126;2023-06-22T08:26:55;24.60;;;18.95;;
80908;SDS011;70358;56.958;24.126;2023-06-22T08:29:21;26.35;;;18.67;;
80908;SDS011;70358;56.958;24.126;2023-06-22T08:31:47;26.92;;;19.95;;
80908;SDS011;70358;56.958;24.126;2023-06-22T08:34:13;30.25;;;18.75;;
80908;SDS011;70358;56.958;24.126;2023-06-22T08:36:38;27.60;;;18.50;;
80908;SDS011;70358;56.958;24.126;2023-06-22T08:39:06;27.48;;;18.15;;
80908;SDS011;70358;56.958;24.126;2023-06-22T08:41:33;22.83;;;18.15;;
80908;SDS011;70358;56.958;24.126;2023-06-22T08:43:58;22.15;;;16.95;;
80908;SDS011;70358;56.958;24.126;2023-06-22T08:46:25;30.73;;;18.23;;
80908;SDS011;70358;56.958;24.126;2023-06-22T08:48:55;24.02;;;17.27;;
80908;SDS011;70358;56.958;24.126;2023-06-22T08:51:22;25.88;;;18.83;;
80908;SDS011;70358;56.958;24.126;2023-06-22T08:53:48;32.58;;;19.58;;
80908;SDS011;70358;56.958;24.126;2023-06-22T08:56:13;34.75;;;19.10;;
80908;SDS011;70358;56.958;24.126;2023-06-22T08:58:39;29.15;;;19.42;;
80908;SDS011;70358;56.958;24.126;2023-06-22T09:01:04;35.45;;;19.75;;
80908;SDS011;70358;56.958;24.126;2023-06-22T09:03:30;32.90;;;20.77;;
80908;SDS011;70358;56.958;24.126;2023-06-22T09:05:57;29.02;;;21.00;;
80908;SDS011;70358;56.958;24.126;2023-06-22T09:08:23;29.48;;;20.70;;
80908;SDS011;70358;56.958;24.126;2023-06-22T09:10:52;25.90;;;19.40;;
80908;SDS011;70358;56.958;24.126;2023-06-22T09:13:17;30.33;;;23.08;;
80908;SDS011;70358;56.958;24.126;2023-06-22T09:15:46;32.67;;;21.50;;
80908;SDS011;70358;56.958;24.126;2023-06-22T09:18:21;31.13;;;22.83;;
80908;SDS011;70358;56.958;24.126;2023-06-22T09:20:46;35.08;;;21.95;;
80908;SDS011;70358;56.958;24.126;2023-06-22T09:23:11;28.60;;;20.40;;
80908;SDS011;70358;56.958;24.126;2023-06-22T09:25:37;33.83;;;22.58;;
80908;SDS011;70358;56.958;24.126;2023-06-22T09:28:02;26.25;;;19.17;;
80908;SDS011;70358;56.958;24.126;2023-06-22T09:30:28;26.75;;;20.80;;
80908;SDS011;70358;56.958;24.126;2023-06-22T09:32:53;27.98;;;20.80;;
80908;SDS011;70358;56.958;24.126;2023-06-22T09:35:19;31.15;;;20.77;;
80908;SDS011;70358;56.958;24.126;2023-06-22T09:37:45;30.67;;;21.10;;
80908;SDS011;70358;56.958;24.126;2023-06-22T09:40:10;27.60;;;21.83;;
80908;SDS011;70358;56.958;24.126;2023-06-22T09:42:38;32.85;;;23.15;;
80908;SDS011;70358;56.958;24.126;2023-06-22T09:45:03;28.30;;;21.63;;
80908;SDS011;70358;56.958;24.126;2023-06-22T09:47:29;30.58;;;21.33;;
80908;SDS011;70358;56.958;24.126;2023-06-22T09:49:55;29.85;;;21.38;;
80908;SDS011;70358;56.958;24.126;2023-06-22T09:52:21;32.63;;;21.38;;
80908;SDS011;70358;56.958;24.126;2023-06-22T09:54:47;31.15;;;22.80;;
80908;SDS011;70358;56.958;24.126;2023-06-22T09:57:12;35.30;;;22.73;;
80908;SDS011;70358;56.958;24.126;2023-06-22T09:59:38;33.67;;;22.50;;
80908;SDS011;70358;56.958;24.126;2023-06-22T10:04:30;30.08;;;20.90;;
80908;SDS011;70358;56.958;24.126;2023-06-22T10:06:56;30.40;;;22.50;;
80908;SDS011;70358;56.958;24.126;2023-06-22T10:09:22;31.35;;;22.40;;
80908;SDS011;70358;56.958;24.126;2023-06-22T10:11:47;34.08;;;23.42;;
80908;SDS011;70358;56.958;24.126;2023-06-22T10:14:13;27.90;;;21.42;;
80908;SDS011;70358;56.958;24.126;2023-06-22T10:16:40;26.67;;;21.63;;
80908;SDS011;70358;56.958;24.126;2023-06-22T10:19:06;29.08;;;22.42;;
80908;SDS011;70358;56.958;24.126;2023-06-22T10:21:31;32.28;;;22.38;;
80908;SDS011;70358;56.958;24.126;2023-06-22T10:23:57;30.73;;;21.90;;
80908;SDS011;70358;56.958;24.126;2023-06-22T10:26:24;31.88;;;23.27;;
80908;SDS011;70358;56.958;24.126;2023-06-22T10:28:49;32.97;;;23.70;;
80908;SDS011;70358;56.958;24.126;2023-06-22T10:31:15;29.60;;;22.05;;
80908;SDS011;70358;56.958;24.126;2023-06-22T10:33:41;32.10;;;21.40;;
80908;SDS011;70358;56.958;24.126;2023-06-22T10:36:09;26.98;;;20.63;;
80908;SDS011;70358;56.958;24.126;2023-06-22T10:38:35;30.02;;;21.55;;
80908;SDS011;70358;56.958;24.126;2023-06-22T10:41:01;26.83;;;21.15;;
80908;SDS011;70358;56.958;24.126;2023-06-22T10:43:27;25.98;;;20.40;;
80908;SDS011;70358;56.958;24.126;2023-06-22T10:45:53;26.38;;;21.02;;
80908;SDS011;70358;56.958;24.126;2023-06-22T10:48:18;26.58;;;22.15;;
80908;SDS011;70358;56.958;24.126;2023-06-22T10:50:43;31.50;;;21.50;;
80908;SDS011;70358;56.958;24.126;2023-06-22T10:53:09;28.33;;;21.60;;
80908;SDS011;70358;56.958;24.126;2023-06-22T10:55:34;30.05;;;23.13;;
80908;SDS011;70358;56.958;24.126;2023-06-22T10:58:00;30.38;;;21.63;;
80908;SDS011;70358;56.958;24.126;2023-06-22T11:00:26;27.92;;;21.70;;
80908;SDS011;70358;56.958;24.126;2023-06-22T11:02:51;30.23;;;21.40;;
80908;SDS011;70358;56.958;24.126;2023-06-22T11:05:16;29.70;;;20.88;;
80908;SDS011;70358;56.958;24.126;2023-06-22T11:07:42;29.58;;;21.80;;
80908;SDS011;70358;56.958;24.126;2023-06-22T11:10:09;34.13;;;22.25;;
80908;SDS011;70358;56.958;24.126;2023-06-22T11:12:35;29.67;;;22.33;;
80908;SDS011;70358;56.958;24.126;2023-06-22T11:15:01;27.35;;;21.33;;
80908;SDS011;70358;56.958;24.126;2023-06-22T11:17:26;34.92;;;20.58;;
80908;SDS011;70358;56.958;24.126;2023-06-22T11:19:52;27.30;;;20.08;;
80908;SDS011;70358;56.958;24.126;2023-06-22T11:22:17;29.38;;;21.02;;
80908;SDS011;70358;56.958;24.126;2023-06-22T11:24:42;30.85;;;21.77;;
80908;SDS011;70358;56.958;24.126;2023-06-22T11:27:08;27.65;;;19.63;;
80908;SDS011;70358;56.958;24.126;2023-06-22T11:29:33;30.25;;;21.77;;
80908;SDS011;70358;56.958;24.126;2023-06-22T11:31:59;34.50;;;21.00;;
80908;SDS011;70358;56.958;24.126;2023-06-22T11:34:27;31.75;;;21.73;;
80908;SDS011;70358;56.958;24.126;2023-06-22T11:36:53;30.65;;;20.88;;
80908;SDS011;70358;56.958;24.126;2023-06-22T11:39:18;28.95;;;21.65;;
80908;SDS011;70358;56.958;24.126;2023-06-22T11:41:44;28.70;;;20.40;;
80908;SDS011;70358;56.958;24.126;2023-06-22T11:44:09;26.85;;;20.75;;
80908;SDS011;70358;56.958;24.126;2023-06-22T11:46:36;35.03;;;20.52;;
80908;SDS011;70358;56.958;24.126;2023-06-22T11:49:01;38.08;;;22.17;;
80908;SDS011;70358;56.958;24.126;2023-06-22T11:51:27;37.45;;;21.15;;
80908;SDS011;70358;56.958;24.126;2023-06-22T11:53:54;38.45;;;21.92;;
80908;SDS011;70358;56.958;24.126;2023-06-22T11:56:19;35.83;;;21.02;;
80908;SDS011;70358;56.958;24.126;2023-06-22T11:58:45;40.38;;;22.83;;
80908;SDS011;70358;56.958;24.126;2023-06-22T12:01:10;46.05;;;21.23;;
80908;SDS011;70358;56.958;24.126;2023-06-22T12:03:38;41.10;;;23.27;;
80908;SDS011;70358;56.958;24.126;2023-06-22T12:06:03;42.90;;;22.77;;
80908;SDS011;70358;56.958;24.126;2023-06-22T12:08:29;39.28;;;22.05;;
80908;SDS011;70358;56.958;24.126;2023-06-22T12:10:54;36.92;;;20.55;;
80908;SDS011;70358;56.958;24.126;2023-06-22T12:13:23;34.17;;;20.67;;
80908;SDS011;70358;56.958;24.126;2023-06-22T12:15:48;40.08;;;21.35;;
80908;SDS011;70358;56.958;24.126;2023-06-22T12:18:14;35.35;;;20.55;;
80908;SDS011;70358;56.958;24.126;2023-06-22T12:20:40;32.95;;;18.83;;
80908;SDS011;70358;56.958;24.126;2023-06-22T12:23:06;35.50;;;19.60;;
80908;SDS011;70358;56.958;24.126;2023-06-22T12:25:31;35.95;;;20.40;;
80908;SDS011;70358;56.958;24.126;2023-06-22T12:27:59;34.78;;;20.23;;
80908;SDS011;70358;56.958;24.126;2023-06-22T12:30:25;33.97;;;19.65;;
80908;SDS011;70358;56.958;24.126;2023-06-22T12:32:50;38.70;;;19.50;;
80908;SDS011;70358;56.958;24.126;2023-06-22T12:35:16;37.10;;;19.83;;
80908;SDS011;70358;56.958;24.126;2023-06-22T12:37:42;32.17;;;19.92;;
80908;SDS011;70358;56.958;24.126;2023-06-22T12:40:08;36.10;;;20.10;;
80908;SDS011;70358;56.958;24.126;2023-06-22T12:42:34;32.40;;;19.95;;
80908;SDS011;70358;56.958;24.126;2023-06-22T12:44:59;30.35;;;18.95;;
80908;SDS011;70358;56.958;24.126;2023-06-22T12:47:25;26.60;;;17.90;;
80908;SDS011;70358;56.958;24.126;2023-06-22T12:49:50;32.92;;;19.10;;
80908;SDS011;70358;56.958;24.126;2023-06-22T12:52:16;28.98;;;19.25;;
80908;SDS011;70358;56.958;24.126;2023-06-22T12:54:41;35.15;;;19.50;;
80908;SDS011;70358;56.958;24.126;2023-06-22T12:57:06;26.92;;;19.10;;
80908;SDS011;70358;56.958;24.126;2023-06-22T12:59:32;30.63;;;19.00;;
80908;SDS011;70358;56.958;24.126;2023-06-22T13:01:57;26.58;;;19.17;;
80908;SDS011;70358;56.958;24.126;2023-06-22T13:04:23;28.17;;;18.50;;
80908;SDS011;70358;56.958;24.126;2023-06-22T13:06:48;28.05;;;18.17;;
80908;SDS011;70358;56.958;24.126;2023-06-22T13:09:14;25.80;;;17.65;;
80908;SDS011;70358;56.958;24.126;2023-06-22T13:11:41;29.52;;;18.15;;
80908;SDS011;70358;56.958;24.126;2023-06-22T13:14:06;24.83;;;17.73;;
80908;SDS011;70358;56.958;24.126;2023-06-22T13:16:32;25.17;;;18.30;;
80908;SDS011;70358;56.958;24.126;2023-06-22T13:18:57;30.55;;;18.42;;
80908;SDS011;70358;56.958;24.126;2023-06-22T13:21:23;27.52;;;17.08;;
80908;SDS011;70358;56.958;24.126;2023-06-22T13:23:48;23.50;;;16.90;;
80908;SDS011;70358;56.958;24.126;2023-06-22T13:26:14;26.70;;;18.10;;
80908;SDS011;70358;56.958;24.126;2023-06-22T13:28:39;31.13;;;17.40;;
80908;SDS011;70358;56.958;24.126;2023-06-22T13:31:04;29.95;;;18.13;;
80908;SDS011;70358;56.958;24.126;2023-06-22T13:33:30;24.20;;;16.83;;
80908;SDS011;70358;56.958;24.126;2023-06-22T13:35:56;27.38;;;17.08;;
80908;SDS011;70358;56.958;24.126;2023-06-22T13:38:21;25.10;;;17.65;;
80908;SDS011;70358;56.958;24.126;2023-06-22T13:40:47;26.15;;;17.95;;
80908;SDS011;70358;56.958;24.126;2023-06-22T13:43:13;24.05;;;17.05;;
80908;SDS011;70358;56.958;24.126;2023-06-22T13:45:38;26.73;;;17.08;;
80908;SDS011;70358;56.958;24.126;2023-06-22T13:48:04;23.10;;;17.43;;
80908;SDS011;70358;56.958;24.126;2023-06-22T13:50:29;25.58;;;17.40;;
80908;SDS011;70358;56.958;24.126;2023-06-22T13:52:55;26.80;;;18.08;;
80908;SDS011;70358;56.958;24.126;2023-06-22T13:55:21;23.33;;;16.80;;
80908;SDS011;70358;56.958;24.126;2023-06-22T13:57:48;26.52;;;16.50;;
80908;SDS011;70358;56.958;24.126;2023-06-22T14:00:13;21.70;;;15.88;;
80908;SDS011;70358;56.958;24.126;2023-06-22T14:02:39;28.25;;;17.67;;
80908;SDS011;70358;56.958;24.126;2023-06-22T14:05:05;25.40;;;16.25;;
80908;SDS011;70358;56.958;24.126;2023-06-22T14:07:31;22.48;;;17.63;;
80908;SDS011;70358;56.958;24.126;2023-06-22T14:09:57;23.85;;;16.00;;
80908;SDS011;70358;56.958;24.126;2023-06-22T14:12:24;26.65;;;16.35;;
80908;SDS011;70358;56.958;24.126;2023-06-22T14:14:49;22.77;;;16.75;;
80908;SDS011;70358;56.958;24.126;2023-06-22T14:17:15;21.08;;;16.55;;
80908;SDS011;70358;56.958;24.126;2023-06-22T14:19:40;24.55;;;16.38;;
80908;SDS011;70358;56.958;24.126;2023-06-22T14:22:06;23.02;;;15.90;;
80908;SDS011;70358;56.958;24.126;2023-06-22T14:24:31;25.55;;;16.38;;
80908;SDS011;70358;56.958;24.126;2023-06-22T14:26:56;24.47;;;15.30;;
80908;SDS011;70358;56.958;24.126;2023-06-22T14:29:22;24.58;;;16.55;;
80908;SDS011;70358;56.958;24.126;2023-06-22T14:31:47;25.23;;;15.70;;
80908;SDS011;70358;56.958;24.126;2023-06-22T14:34:13;22.80;;;16.27;;